createdAt,value
2023-01-18T00:00:59.650Z,9.30
2023-01-18T00:03:26.319Z,9.40
2023-01-18T00:05:54.830Z,9.60
2023-01-18T00:08:22.508Z,10.00
2023-01-18T00:10:49.223Z,10.53
2023-01-18T00:13:15.885Z,11.07
2023-01-18T00:15:42.615Z,11.03
2023-01-18T00:18:09.351Z,10.07
2023-01-18T00:20:36.129Z,10.37
2023-01-18T00:23:02.807Z,10.90
2023-01-18T00:25:30.153Z,10.60
2023-01-18T00:27:58.173Z,10.17
2023-01-18T00:30:27.872Z,10.80
2023-01-18T00:32:59.094Z,10.07
2023-01-18T00:35:26.713Z,10.60
2023-01-18T00:37:54.083Z,10.63
2023-01-18T00:40:22.402Z,10.87
2023-01-18T00:43:07.722Z,9.83
2023-01-18T00:45:34.479Z,11.00
2023-01-18T00:48:02.538Z,10.63
2023-01-18T00:50:29.484Z,10.30
2023-01-18T00:52:58.611Z,9.80
2023-01-18T00:55:26.322Z,9.63
2023-01-18T00:57:52.991Z,10.10
2023-01-18T01:00:20.366Z,9.83
2023-01-18T01:02:47.146Z,10.70
2023-01-18T01:05:38.352Z,9.73
2023-01-18T01:08:06.011Z,10.10
2023-01-18T01:10:35.744Z,10.70
2023-01-18T01:13:21.271Z,10.97
2023-01-18T01:16:06.925Z,10.60
2023-01-18T01:18:52.417Z,10.83
2023-01-18T01:21:38.058Z,10.87
2023-01-18T01:24:23.651Z,10.43
2023-01-18T01:26:50.415Z,11.23
2023-01-18T01:29:17.530Z,10.63
2023-01-18T01:31:44.245Z,10.60
2023-01-18T01:34:10.965Z,10.80
2023-01-18T01:36:37.696Z,10.47
2023-01-18T01:39:07.017Z,10.97
2023-01-18T01:41:35.026Z,11.30
2023-01-18T01:44:19.968Z,11.57
2023-01-18T01:46:49.720Z,10.77
2023-01-18T01:49:42.982Z,11.43
2023-01-18T01:52:13.421Z,11.50
2023-01-18T01:55:04.686Z,10.23
2023-01-18T01:57:37.088Z,10.97
2023-01-18T02:00:20.172Z,11.50
2023-01-18T02:03:01.343Z,11.37
2023-01-18T02:05:30.992Z,11.07
2023-01-18T02:08:02.556Z,11.70
2023-01-18T02:10:30.495Z,11.83
2023-01-18T02:12:58.735Z,11.00
2023-01-18T02:15:36.395Z,12.07
2023-01-18T02:18:32.486Z,11.07
2023-01-18T02:21:36.195Z,13.10
2023-01-18T02:24:17.536Z,12.20
2023-01-18T02:26:50.325Z,12.33
2023-01-18T02:29:28.918Z,13.53
2023-01-18T02:32:02.977Z,12.57
2023-01-18T02:34:35.614Z,12.77
2023-01-18T02:37:20.733Z,13.23
2023-01-18T02:39:56.658Z,12.83
2023-01-18T02:42:45.731Z,13.87
2023-01-18T02:45:49.725Z,12.60
2023-01-18T02:48:18.618Z,13.47
2023-01-18T02:50:45.290Z,14.87
2023-01-18T02:53:14.584Z,14.30
2023-01-18T02:55:53.939Z,13.77
2023-01-18T02:58:24.413Z,15.40
2023-01-18T03:01:09.784Z,14.23
2023-01-18T03:03:38.170Z,15.43
2023-01-18T03:06:08.047Z,15.77
2023-01-18T03:08:41.381Z,15.73
2023-01-18T03:11:14.177Z,17.17
2023-01-18T03:14:11.791Z,15.87
2023-01-18T03:16:57.939Z,15.57
2023-01-18T03:19:56.877Z,15.83
2023-01-18T03:22:46.513Z,15.57
2023-01-18T03:25:17.671Z,16.07
2023-01-18T03:28:05.068Z,16.60
2023-01-18T03:30:52.683Z,17.43
2023-01-18T03:33:41.522Z,15.90
2023-01-18T03:36:12.803Z,17.60
2023-01-18T03:38:43.046Z,17.27
2023-01-18T03:41:11.603Z,18.87
2023-01-18T03:43:41.720Z,17.90
2023-01-18T03:46:08.974Z,16.83
2023-01-18T03:48:37.036Z,18.20
2023-01-18T03:51:15.540Z,18.17
2023-01-18T03:54:03.443Z,18.80
2023-01-18T03:57:19.259Z,16.70
2023-01-18T03:59:47.287Z,17.40
2023-01-18T04:02:16.928Z,16.60
2023-01-18T04:04:43.608Z,16.87
2023-01-18T04:07:10.403Z,16.83
2023-01-18T04:09:37.167Z,17.93
2023-01-18T04:12:04.008Z,17.70
2023-01-18T04:14:30.957Z,18.93
2023-01-18T04:16:57.580Z,19.17
2023-01-18T04:19:24.330Z,17.77
2023-01-18T04:21:50.991Z,17.43
2023-01-18T04:24:17.682Z,17.83
2023-01-18T04:26:44.321Z,18.13
2023-01-18T04:29:10.992Z,18.07
2023-01-18T04:31:37.907Z,18.13
2023-01-18T04:34:04.583Z,18.80
2023-01-18T04:36:31.592Z,17.63
2023-01-18T04:38:59.276Z,18.50
2023-01-18T04:41:26.029Z,17.37
2023-01-18T04:43:52.680Z,17.60
2023-01-18T04:46:19.394Z,16.30
2023-01-18T04:48:50.667Z,15.87
2023-01-18T04:51:18.463Z,16.47
2023-01-18T04:53:45.562Z,15.73
2023-01-18T04:56:12.676Z,16.27
2023-01-18T04:58:39.378Z,16.37
2023-01-18T05:01:09.052Z,15.83
2023-01-18T05:03:38.274Z,16.70
2023-01-18T05:06:10.666Z,16.90
2023-01-18T05:08:41.006Z,17.03
2023-01-18T05:11:16.775Z,17.17
2023-01-18T05:13:46.025Z,14.90
2023-01-18T05:16:20.731Z,15.60
2023-01-18T05:18:47.869Z,17.00
2023-01-18T05:21:24.415Z,17.90
2023-01-18T05:23:51.061Z,16.47
2023-01-18T05:26:20.887Z,17.13
2023-01-18T05:28:48.630Z,17.67
2023-01-18T05:31:16.214Z,17.33
2023-01-18T05:33:42.968Z,17.07
2023-01-18T05:36:09.912Z,18.33
2023-01-18T05:38:36.757Z,17.70
2023-01-18T05:41:03.527Z,17.20
2023-01-18T05:43:30.686Z,17.43
2023-01-18T05:45:58.722Z,18.47
2023-01-18T05:48:26.150Z,19.53
2023-01-18T05:50:52.896Z,19.17
2023-01-18T05:53:22.442Z,21.20
2023-01-18T05:56:03.171Z,20.33
2023-01-18T05:58:29.893Z,19.07
2023-01-18T06:00:56.803Z,18.47
2023-01-18T06:03:25.275Z,17.87
2023-01-18T06:05:52.236Z,17.77
2023-01-18T06:08:19.546Z,17.03
2023-01-18T06:10:53.473Z,16.37
2023-01-18T06:13:20.837Z,16.33
2023-01-18T06:15:49.620Z,17.47
2023-01-18T06:18:16.475Z,17.10
2023-01-18T06:20:43.228Z,15.23
2023-01-18T06:23:09.909Z,15.67
2023-01-18T06:25:36.563Z,16.47
2023-01-18T06:28:05.021Z,14.87
2023-01-18T06:30:33.584Z,16.37
2023-01-18T06:33:04.900Z,15.83
2023-01-18T06:35:31.566Z,14.70
2023-01-18T06:37:58.972Z,16.40
2023-01-18T06:40:25.977Z,15.67
2023-01-18T06:42:52.636Z,16.40
2023-01-18T06:45:21.980Z,16.10
2023-01-18T06:47:49.474Z,15.57
2023-01-18T06:50:16.707Z,15.27
2023-01-18T06:52:44.492Z,15.10
2023-01-18T06:55:12.607Z,15.83
2023-01-18T06:57:39.819Z,15.43
2023-01-18T07:00:08.139Z,16.57
2023-01-18T07:02:35.902Z,15.37
2023-01-18T07:05:03.118Z,14.10
2023-01-18T07:07:30.048Z,14.83
2023-01-18T07:09:56.832Z,15.73
2023-01-18T07:12:23.658Z,15.07
2023-01-18T07:14:50.383Z,17.13
2023-01-18T07:17:17.028Z,17.07
2023-01-18T07:19:44.572Z,14.97
2023-01-18T07:22:12.290Z,15.50
2023-01-18T07:24:38.930Z,16.17
2023-01-18T07:27:06.137Z,15.67
2023-01-18T07:29:32.823Z,16.13
2023-01-18T07:32:01.068Z,15.30
2023-01-18T07:34:27.840Z,15.77
2023-01-18T07:36:54.963Z,16.43
2023-01-18T07:39:24.771Z,17.23
2023-01-18T07:41:51.450Z,15.93
2023-01-18T07:44:18.802Z,17.30
2023-01-18T07:46:45.774Z,16.10
2023-01-18T07:49:13.643Z,16.10
2023-01-18T07:51:41.255Z,16.60
2023-01-18T07:54:07.996Z,16.57
2023-01-18T07:56:34.740Z,16.77
2023-01-18T07:59:01.382Z,16.00
2023-01-18T08:01:28.243Z,17.33
2023-01-18T08:03:55.238Z,16.07
2023-01-18T08:06:27.156Z,15.63
2023-01-18T08:08:57.149Z,16.50
2023-01-18T08:11:24.127Z,16.80
2023-01-18T08:13:52.592Z,17.43
2023-01-18T08:16:19.321Z,15.70
2023-01-18T08:18:49.256Z,17.00
2023-01-18T08:21:15.965Z,16.40
2023-01-18T08:23:42.956Z,18.17
2023-01-18T08:26:12.492Z,16.63
2023-01-18T08:28:41.358Z,14.73
2023-01-18T08:31:17.054Z,15.97
2023-01-18T08:33:46.942Z,16.40
2023-01-18T08:36:16.382Z,16.13
2023-01-18T08:38:43.412Z,16.20
2023-01-18T08:41:10.205Z,15.47
2023-01-18T08:43:37.113Z,16.67
2023-01-18T08:46:03.934Z,17.50
2023-01-18T08:48:30.657Z,17.10
2023-01-18T08:51:01.207Z,17.33
2023-01-18T08:53:29.068Z,16.93
2023-01-18T08:55:55.729Z,16.53
2023-01-18T08:58:22.462Z,17.97
2023-01-18T09:00:50.663Z,16.70
2023-01-18T09:03:23.475Z,18.23
2023-01-18T09:05:50.161Z,17.23
2023-01-18T09:08:17.632Z,18.03
2023-01-18T09:10:45.175Z,17.57
2023-01-18T09:13:12.243Z,16.40
2023-01-18T09:15:39.098Z,18.00
2023-01-18T09:18:07.649Z,17.23
2023-01-18T09:20:36.181Z,16.27
2023-01-18T09:23:09.353Z,16.37
2023-01-18T09:25:37.203Z,17.03
2023-01-18T09:28:05.635Z,14.87
2023-01-18T09:30:33.094Z,15.90
2023-01-18T09:33:00.980Z,15.53
2023-01-18T09:35:27.965Z,15.17
2023-01-18T09:37:56.888Z,13.70
2023-01-18T09:40:40.999Z,13.90
2023-01-18T09:43:20.949Z,12.60
2023-01-18T09:45:48.208Z,11.10
2023-01-18T09:48:26.517Z,12.23
2023-01-18T09:50:54.155Z,12.23
2023-01-18T09:53:53.124Z,10.87
2023-01-18T09:56:27.728Z,10.27
2023-01-18T09:59:03.409Z,11.00
2023-01-18T10:01:33.052Z,9.80
2023-01-18T10:04:16.554Z,10.83
2023-01-18T10:06:52.956Z,9.57
2023-01-18T10:09:23.766Z,9.80
2023-01-18T10:12:14.537Z,11.00
2023-01-18T10:15:17.320Z,10.43
2023-01-18T10:17:45.053Z,10.23
2023-01-18T10:20:24.892Z,10.47
2023-01-18T10:23:15.609Z,10.73
2023-01-18T10:26:07.805Z,9.40
2023-01-18T10:28:56.922Z,11.00
2023-01-18T10:31:29.752Z,9.70
2023-01-18T10:33:59.190Z,10.17
2023-01-18T10:36:38.346Z,9.80
2023-01-18T10:39:28.091Z,10.80
2023-01-18T10:42:00.208Z,9.83
2023-01-18T10:44:28.110Z,11.10
2023-01-18T10:47:02.468Z,10.20
2023-01-18T10:49:40.825Z,10.30
2023-01-18T10:52:28.831Z,9.87
2023-01-18T10:54:58.011Z,10.10
2023-01-18T10:57:30.435Z,9.83
2023-01-18T10:59:58.402Z,10.30
2023-01-18T11:02:36.851Z,9.90
2023-01-18T11:05:30.352Z,10.70
2023-01-18T11:08:18.851Z,10.13
2023-01-18T11:10:45.633Z,10.20
2023-01-18T11:13:31.155Z,9.40
2023-01-18T11:16:24.469Z,10.23
2023-01-18T11:19:04.350Z,11.57
2023-01-18T11:21:41.027Z,9.97
2023-01-18T11:24:13.742Z,9.93
2023-01-18T11:27:05.810Z,9.90
2023-01-18T11:29:38.445Z,10.23
2023-01-18T11:32:14.624Z,9.63
2023-01-18T11:34:46.474Z,10.00
2023-01-18T11:37:35.325Z,9.63
2023-01-18T11:40:20.531Z,9.40
2023-01-18T11:42:50.207Z,9.10
2023-01-18T11:45:29.858Z,9.03
2023-01-18T11:48:17.688Z,10.00
2023-01-18T11:50:52.687Z,10.60
2023-01-18T11:53:43.898Z,8.73
2023-01-18T11:56:32.011Z,8.97
2023-01-18T11:59:00.885Z,9.80
2023-01-18T12:01:58.398Z,9.00
2023-01-18T12:04:40.325Z,9.57
2023-01-18T12:07:42.395Z,8.77
2023-01-18T12:10:18.559Z,8.80
2023-01-18T12:13:00.229Z,8.63
2023-01-18T12:15:51.947Z,9.13
2023-01-18T12:18:40.555Z,8.43
2023-01-18T12:21:14.501Z,8.10
2023-01-18T12:23:43.915Z,8.03
2023-01-18T12:26:22.518Z,8.13
2023-01-18T12:29:02.752Z,8.10
2023-01-18T12:31:47.546Z,8.23
2023-01-18T12:34:18.653Z,7.80
2023-01-18T12:37:30.037Z,8.47
2023-01-18T12:40:19.492Z,7.77
2023-01-18T12:43:12.498Z,7.97
2023-01-18T12:46:07.289Z,7.87
2023-01-18T12:48:42.873Z,7.83
2023-01-18T12:51:18.462Z,7.27
2023-01-18T12:54:16.399Z,6.70
2023-01-18T12:56:46.961Z,6.63
2023-01-18T12:59:30.514Z,7.27
2023-01-18T13:02:24.898Z,7.57
2023-01-18T13:05:12.654Z,7.20
2023-01-18T13:07:47.094Z,7.07
2023-01-18T13:10:19.961Z,7.50
2023-01-18T13:12:49.238Z,8.20
2023-01-18T13:15:40.869Z,8.30
2023-01-18T13:18:13.924Z,7.40
2023-01-18T13:20:54.950Z,9.20
2023-01-18T13:23:55.815Z,8.03
2023-01-18T13:26:29.992Z,8.23
2023-01-18T13:29:22.510Z,8.40
2023-01-18T13:31:49.835Z,7.83
2023-01-18T13:34:30.563Z,8.13
2023-01-18T13:37:13.432Z,7.63
2023-01-18T13:39:46.855Z,7.13
2023-01-18T13:42:22.418Z,8.13
2023-01-18T13:45:06.048Z,8.00
2023-01-18T13:47:35.791Z,7.10
2023-01-18T13:50:02.670Z,7.27
2023-01-18T13:52:35.566Z,7.70
2023-01-18T13:55:20.389Z,6.97
2023-01-18T13:57:55.456Z,7.97
2023-01-18T14:00:24.664Z,7.43
2023-01-18T14:02:56.594Z,7.27
2023-01-18T14:05:34.180Z,6.43
2023-01-18T14:08:02.554Z,6.20
2023-01-18T14:10:35.872Z,6.47
2023-01-18T14:13:07.989Z,5.57
2023-01-18T14:15:43.447Z,5.43
2023-01-18T14:18:21.424Z,4.93
2023-01-18T14:21:00.000Z,5.30
2023-01-18T14:23:46.422Z,5.13
2023-01-18T14:26:18.120Z,4.87
2023-01-18T14:28:57.258Z,4.93
2023-01-18T14:31:37.483Z,5.13
2023-01-18T14:34:29.290Z,5.00
2023-01-18T14:36:59.509Z,4.77
2023-01-18T14:39:28.291Z,4.90
2023-01-18T14:41:57.807Z,5.73
2023-01-18T14:44:31.007Z,5.20
2023-01-18T14:46:58.941Z,4.73
2023-01-18T14:49:44.697Z,5.73
2023-01-18T14:52:16.943Z,5.73
2023-01-18T14:55:01.959Z,5.47
2023-01-18T14:57:28.639Z,5.53
2023-01-18T15:00:03.534Z,5.73
2023-01-18T15:02:38.274Z,4.93
2023-01-18T15:05:17.229Z,5.40
2023-01-18T15:07:50.391Z,4.70
2023-01-18T15:10:19.054Z,5.10
2023-01-18T15:12:49.692Z,4.67
2023-01-18T15:15:22.032Z,5.47
2023-01-18T15:17:50.126Z,5.37
2023-01-18T15:20:17.280Z,5.20
2023-01-18T15:22:44.432Z,5.73
2023-01-18T15:25:30.704Z,5.00
2023-01-18T15:28:11.698Z,5.30
2023-01-18T15:30:50.325Z,5.70
2023-01-18T15:33:17.513Z,5.70
2023-01-18T15:35:46.562Z,5.03
2023-01-18T15:38:14.824Z,5.33
2023-01-18T15:40:53.257Z,5.50
2023-01-18T15:43:33.555Z,5.20
2023-01-18T15:46:01.050Z,5.43
2023-01-18T15:48:44.453Z,5.80
2023-01-18T15:51:11.288Z,5.43
2023-01-18T15:53:52.494Z,5.70
2023-01-18T15:56:25.365Z,5.70
2023-01-18T15:58:55.825Z,6.15
2023-01-18T16:01:29.278Z,5.37
2023-01-18T16:03:58.726Z,5.67
2023-01-18T16:06:28.732Z,6.10
2023-01-18T16:09:16.046Z,5.27
2023-01-18T16:12:01.076Z,6.37
2023-01-18T16:14:35.699Z,5.57
2023-01-18T16:17:15.183Z,6.20
2023-01-18T16:19:51.991Z,6.50
2023-01-18T16:22:21.411Z,6.40
2023-01-18T16:25:01.323Z,5.57
2023-01-18T16:27:30.921Z,6.40
2023-01-18T16:29:59.797Z,6.70
2023-01-18T16:32:29.303Z,6.47
2023-01-18T16:35:03.568Z,6.63
2023-01-18T16:37:30.771Z,6.13
2023-01-18T16:39:57.461Z,6.53
2023-01-18T16:42:36.920Z,7.10
2023-01-18T16:45:05.407Z,6.60
2023-01-18T16:47:32.040Z,5.83
2023-01-18T16:49:59.319Z,5.80
2023-01-18T16:52:27.305Z,6.23
2023-01-18T16:54:53.959Z,6.77
2023-01-18T16:57:22.620Z,7.13
2023-01-18T16:59:50.215Z,6.13
2023-01-18T17:02:16.964Z,6.97
2023-01-18T17:04:45.377Z,6.67
2023-01-18T17:07:12.347Z,6.73
2023-01-18T17:09:48.042Z,6.30
2023-01-18T17:12:15.256Z,6.57
2023-01-18T17:14:41.946Z,6.73
2023-01-18T17:17:10.115Z,6.47
2023-01-18T17:19:37.821Z,7.10
2023-01-18T17:22:06.376Z,6.47
2023-01-18T17:24:33.128Z,6.47
2023-01-18T17:27:01.198Z,6.87
2023-01-18T17:29:28.178Z,6.67
2023-01-18T17:31:54.822Z,8.17
2023-01-18T17:34:27.982Z,6.40
2023-01-18T17:36:55.990Z,7.07
2023-01-18T17:39:24.883Z,7.13
2023-01-18T17:41:58.678Z,7.03
2023-01-18T17:44:36.485Z,6.30
2023-01-18T17:47:03.876Z,6.37
2023-01-18T17:49:30.538Z,7.30
2023-01-18T17:51:57.179Z,7.20
2023-01-18T17:54:24.006Z,7.33
2023-01-18T17:56:50.691Z,8.40
2023-01-18T17:59:17.355Z,6.80
2023-01-18T18:01:44.228Z,7.07
2023-01-18T18:04:11.000Z,6.93
2023-01-18T18:06:40.449Z,7.33
2023-01-18T18:09:12.795Z,7.63
2023-01-18T18:11:39.442Z,7.33
2023-01-18T18:14:06.114Z,6.70
2023-01-18T18:16:34.457Z,7.53
2023-01-18T18:19:14.410Z,8.10
2023-01-18T18:21:45.248Z,7.67
2023-01-18T18:24:11.957Z,7.77
2023-01-18T18:26:38.654Z,7.10
2023-01-18T18:29:05.332Z,7.30
2023-01-18T18:31:36.462Z,6.93
2023-01-18T18:34:03.217Z,6.90
2023-01-18T18:36:29.851Z,7.40
2023-01-18T18:39:03.967Z,6.73
2023-01-18T18:41:30.725Z,6.90
2023-01-18T18:43:57.491Z,6.30
2023-01-18T18:46:24.528Z,7.43
2023-01-18T18:48:54.860Z,7.60
2023-01-18T18:51:22.538Z,7.70
2023-01-18T18:53:49.254Z,7.60
2023-01-18T18:56:16.021Z,8.93
2023-01-18T18:58:42.724Z,9.50
2023-01-18T19:01:30.073Z,9.93
2023-01-18T19:03:58.615Z,8.87
2023-01-18T19:06:25.967Z,9.40
2023-01-18T19:08:53.040Z,8.27
2023-01-18T19:11:20.298Z,9.33
2023-01-18T19:13:49.441Z,8.80
2023-01-18T19:16:16.990Z,9.10
2023-01-18T19:18:43.977Z,11.37
2023-01-18T19:21:11.093Z,9.43
2023-01-18T19:23:37.765Z,10.07
2023-01-18T19:26:04.576Z,9.63
2023-01-18T19:28:31.305Z,10.57
2023-01-18T19:31:02.556Z,10.03
2023-01-18T19:33:29.298Z,10.73
2023-01-18T19:35:55.973Z,10.37
2023-01-18T19:38:22.779Z,10.40
2023-01-18T19:40:49.476Z,10.33
2023-01-18T19:43:16.365Z,9.77
2023-01-18T19:45:43.103Z,10.50
2023-01-18T19:48:09.771Z,10.50
2023-01-18T19:50:36.456Z,11.00
2023-01-18T19:53:03.681Z,10.67
2023-01-18T19:55:30.641Z,10.40
2023-01-18T19:57:57.575Z,11.30
2023-01-18T20:00:25.665Z,11.47
2023-01-18T20:02:53.295Z,12.57
2023-01-18T20:05:20.517Z,11.53
2023-01-18T20:07:47.217Z,12.33
2023-01-18T20:10:14.099Z,15.33
2023-01-18T20:12:40.836Z,11.80
2023-01-18T20:15:07.901Z,12.77
2023-01-18T20:17:34.538Z,12.40
2023-01-18T20:20:01.224Z,11.93
2023-01-18T20:22:27.910Z,12.03
2023-01-18T20:24:54.764Z,12.63
2023-01-18T20:27:21.423Z,14.60
2023-01-18T20:29:48.104Z,13.57
2023-01-18T20:32:17.228Z,13.97
2023-01-18T20:34:47.815Z,12.73
2023-01-18T20:37:15.528Z,13.53
2023-01-18T20:39:42.521Z,12.90
2023-01-18T20:42:09.209Z,12.63
2023-01-18T20:44:36.023Z,13.53
2023-01-18T20:47:03.125Z,13.67
2023-01-18T20:49:37.825Z,14.57
2023-01-18T20:52:06.705Z,14.83
2023-01-18T20:54:34.882Z,15.13
2023-01-18T20:57:02.788Z,14.33
2023-01-18T20:59:29.461Z,14.67
2023-01-18T21:01:56.263Z,14.10
2023-01-18T21:04:23.039Z,15.47
2023-01-18T21:06:49.904Z,14.83
2023-01-18T21:09:16.952Z,14.37
2023-01-18T21:11:44.228Z,15.53
2023-01-18T21:14:11.648Z,15.40
2023-01-18T21:16:38.528Z,14.17
2023-01-18T21:19:05.267Z,14.90
2023-01-18T21:21:32.095Z,15.80
2023-01-18T21:23:59.312Z,15.33
2023-01-18T21:26:26.461Z,15.67
2023-01-18T21:28:53.664Z,15.67
2023-01-18T21:31:20.700Z,14.80
2023-01-18T21:33:47.521Z,14.40
2023-01-18T21:36:17.656Z,15.53
2023-01-18T21:38:44.649Z,14.30
2023-01-18T21:41:30.303Z,13.43
2023-01-18T21:44:15.629Z,13.53
2023-01-18T21:46:46.886Z,14.70
2023-01-18T21:49:52.056Z,13.67
2023-01-18T21:52:39.008Z,13.13
2023-01-18T21:55:05.966Z,13.40
2023-01-18T21:57:32.624Z,14.10
2023-01-18T21:59:59.330Z,13.87
2023-01-18T22:02:26.108Z,13.77
2023-01-18T22:05:03.667Z,13.70
2023-01-18T22:07:32.897Z,13.53
2023-01-18T22:10:05.133Z,14.03
2023-01-18T22:12:35.090Z,14.10
2023-01-18T22:15:03.226Z,14.30
2023-01-18T22:17:30.058Z,13.80
2023-01-18T22:19:56.836Z,13.47
2023-01-18T22:22:23.687Z,13.67
2023-01-18T22:24:50.334Z,14.83
2023-01-18T22:27:16.972Z,14.23
2023-01-18T22:29:43.607Z,15.20
2023-01-18T22:32:10.302Z,15.47
2023-01-18T22:34:37.026Z,15.57
2023-01-18T22:37:03.903Z,15.90
2023-01-18T22:39:30.690Z,16.10
2023-01-18T22:41:57.611Z,14.43
2023-01-18T22:44:24.293Z,16.87
2023-01-18T22:46:51.117Z,15.43
2023-01-18T22:49:17.959Z,15.90
2023-01-18T22:51:44.639Z,15.17
2023-01-18T22:54:11.300Z,15.90
2023-01-18T22:56:37.964Z,15.70
2023-01-18T22:59:04.627Z,15.13
2023-01-18T23:01:32.662Z,16.47
2023-01-18T23:04:02.220Z,14.90
2023-01-18T23:06:34.742Z,15.70
2023-01-18T23:09:01.508Z,14.90
2023-01-18T23:11:29.807Z,15.37
2023-01-18T23:14:16.876Z,15.90
2023-01-18T23:17:02.962Z,14.97
2023-01-18T23:19:30.988Z,14.20
2023-01-18T23:21:57.882Z,14.53
2023-01-18T23:24:24.638Z,15.27
2023-01-18T23:26:51.891Z,15.50
2023-01-18T23:29:19.992Z,15.33
2023-01-18T23:31:46.832Z,15.03
2023-01-18T23:34:13.562Z,16.33
2023-01-18T23:36:40.251Z,17.27
2023-01-18T23:39:25.438Z,17.37
2023-01-18T23:42:10.935Z,18.53
2023-01-18T23:44:56.279Z,18.87
2023-01-18T23:47:41.786Z,21.30
2023-01-18T23:50:27.807Z,21.37
2023-01-18T23:53:13.217Z,22.97
2023-01-18T23:55:41.442Z,21.93
2023-01-18T23:58:08.137Z,24.07
